Time;durP1;ratioP1;P1;durP2;ratioP2;P2;SDS_P1;SDS_P2;PMS_P1;PMS_P2;Temp;Humidity;BMP_temperature;BMP_pressure;BME280_temperature;BME280_humidity;BME280_pressure;Samples;Min_cycle;Max_cycle;Signal;HPM_P1;HPM_P2
2023/09/09 00:00:07;;;;;;;6.53;5.30;;;;;;;17.55;100.00;100753.81;6321959;28;20056;-88
2023/09/09 00:03:12;;;;;;;6.53;5.00;;;;;;;17.52;100.00;100762.00;6317355;28;20517;-88
2023/09/09 00:06:15;;;;;;;6.35;5.13;;;;;;;17.49;100.00;100760.53;6340267;28;20048;-88
2023/09/09 00:09:16;;;;;;;6.90;5.55;;;;;;;17.43;100.00;100761.16;6329597;28;20099;-88
2023/09/09 00:12:18;;;;;;;6.65;5.22;;;;;;;17.36;100.00;100760.16;6331070;28;20370;-88
2023/09/09 00:15:22;;;;;;;6.22;5.20;;;;;;;17.34;100.00;100759.47;6317827;28;20047;-88
2023/09/09 00:18:24;;;;;;;6.78;5.03;;;;;;;17.30;100.00;100761.59;6331870;28;20047;-88
2023/09/09 00:21:26;;;;;;;5.43;4.93;;;;;;;17.23;100.00;100747.53;6320877;28;20039;-88
2023/09/09 00:24:28;;;;;;;6.25;4.88;;;;;;;17.17;100.00;100751.59;6324552;28;20039;-88
2023/09/09 00:27:30;;;;;;;7.55;5.18;;;;;;;17.14;100.00;100743.22;6326181;28;20047;-87
2023/09/09 00:30:32;;;;;;;7.10;4.85;;;;;;;17.11;100.00;100749.59;6325152;28;20064;-88
2023/09/09 00:33:34;;;;;;;7.22;5.32;;;;;;;17.05;100.00;100734.56;6319613;28;20131;-88
2023/09/09 00:36:36;;;;;;;8.68;5.30;;;;;;;17.03;100.00;100743.53;6315178;28;20071;-88
2023/09/09 00:39:38;;;;;;;5.75;4.88;;;;;;;16.98;100.00;100747.44;6337335;28;20484;-88
2023/09/09 00:42:40;;;;;;;8.02;5.70;;;;;;;16.93;100.00;100739.25;6325507;28;20735;-88
2023/09/09 00:45:42;;;;;;;8.30;5.45;;;;;;;16.91;100.00;100749.03;6323363;28;20477;-88
2023/09/09 00:48:44;;;;;;;7.03;5.07;;;;;;;16.86;100.00;100740.84;6330595;28;20042;-87
2023/09/09 00:51:46;;;;;;;6.47;5.25;;;;;;;16.84;100.00;100744.59;6332988;28;20043;-88
2023/09/09 00:54:48;;;;;;;8.07;6.00;;;;;;;16.79;100.00;100745.91;6341976;28;20051;-88
2023/09/09 00:57:50;;;;;;;7.22;5.50;;;;;;;16.76;100.00;100748.78;6324840;27;20064;-88
2023/09/09 01:00:52;;;;;;;6.15;5.40;;;;;;;16.74;100.00;100747.28;6322209;28;20048;-88
2023/09/09 01:03:54;;;;;;;5.75;5.25;;;;;;;16.71;100.00;100734.53;6312373;28;20059;-88
2023/09/09 01:07:00;;;;;;;7.30;5.45;;;;;;;16.70;100.00;100730.31;6325662;28;20509;-88
2023/09/09 01:10:02;;;;;;;7.43;5.40;;;;;;;16.70;100.00;100736.34;6340931;28;20480;-88
2023/09/09 01:13:05;;;;;;;7.25;5.88;;;;;;;16.70;100.00;100730.31;6333488;28;20055;-88
2023/09/09 01:16:07;;;;;;;8.00;5.88;;;;;;;16.67;100.00;100731.44;6329289;28;20744;-88
2023/09/09 01:19:12;;;;;;;6.25;5.43;;;;;;;16.63;100.00;100732.72;6336040;28;20149;-87
2023/09/09 01:22:18;;;;;;;6.55;5.50;;;;;;;16.61;100.00;100739.06;6330751;28;20528;-88
2023/09/09 01:25:20;;;;;;;6.63;5.13;;;;;;;16.57;100.00;100747.22;6321224;28;20517;-88
2023/09/09 01:28:22;;;;;;;8.63;5.43;;;;;;;16.56;100.00;100742.13;6332186;28;20035;-88
2023/09/09 01:31:24;;;;;;;7.25;5.07;;;;;;;16.53;100.00;100739.84;6321305;28;20047;-88
2023/09/09 01:34:26;;;;;;;6.28;5.50;;;;;;;16.49;100.00;100736.69;6313409;28;20047;-88
2023/09/09 01:37:27;;;;;;;6.55;5.10;;;;;;;16.48;100.00;100740.31;6324264;28;20092;-88
2023/09/09 01:40:29;;;;;;;6.60;5.50;;;;;;;16.46;100.00;100736.19;6343375;28;20024;-88
2023/09/09 01:43:31;;;;;;;6.20;5.22;;;;;;;16.47;100.00;100737.81;6342122;28;20051;-87
2023/09/09 01:46:33;;;;;;;8.75;5.47;;;;;;;16.47;100.00;100730.84;6318280;28;20044;-88
2023/09/09 01:49:35;;;;;;;5.72;5.13;;;;;;;16.49;100.00;100736.69;6332068;28;20035;-88
2023/09/09 01:52:37;;;;;;;7.38;5.38;;;;;;;16.47;100.00;100740.44;6329042;28;20512;-88
2023/09/09 01:55:39;;;;;;;8.65;5.53;;;;;;;16.45;100.00;100732.78;6326296;28;20043;-88
2023/09/09 01:58:41;;;;;;;7.88;5.60;;;;;;;16.41;100.00;100730.63;6328690;28;20046;-88
2023/09/09 02:01:43;;;;;;;8.32;6.18;;;;;;;16.39;100.00;100728.16;6323193;28;20052;-88
2023/09/09 02:04:44;;;;;;;6.22;5.63;;;;;;;16.39;100.00;100736.00;6331002;28;20409;-88
2023/09/09 02:07:47;;;;;;;7.95;5.38;;;;;;;16.35;100.00;100729.44;6339690;28;20095;-88
2023/09/09 02:10:50;;;;;;;8.65;5.50;;;;;;;16.35;100.00;100730.25;6337643;28;20155;-88
2023/09/09 02:13:52;;;;;;;10.15;5.28;;;;;;;16.32;100.00;100735.81;6324568;28;20117;-88
2023/09/09 02:16:54;;;;;;;8.02;5.85;;;;;;;16.29;100.00;100738.69;6331994;28;20296;-88
2023/09/09 02:19:57;;;;;;;6.25;5.35;;;;;;;16.29;100.00;100736.09;6331573;28;20046;-88
2023/09/09 02:23:00;;;;;;;6.45;5.43;;;;;;;16.29;100.00;100733.47;6331247;28;20085;-88
2023/09/09 02:26:02;;;;;;;7.72;5.72;;;;;;;16.29;100.00;100724.81;6320464;28;20044;-88
2023/09/09 02:29:04;;;;;;;6.35;5.32;;;;;;;16.28;100.00;100738.88;6317575;28;20077;-88
2023/09/09 02:32:06;;;;;;;8.32;5.93;;;;;;;16.27;100.00;100730.22;6335124;28;20044;-88
2023/09/09 02:35:08;;;;;;;7.93;5.13;;;;;;;16.28;100.00;100728.41;6332358;28;20040;-87
2023/09/09 02:38:10;;;;;;;7.75;5.57;;;;;;;16.26;100.00;100730.38;6336615;28;20036;-88
2023/09/09 02:41:12;;;;;;;6.75;5.60;;;;;;;16.18;100.00;100717.25;6335608;28;20043;-88
2023/09/09 02:44:15;;;;;;;6.20;5.30;;;;;;;16.13;100.00;100723.75;6340263;28;20055;-88
2023/09/09 02:47:19;;;;;;;7.75;5.75;;;;;;;16.09;100.00;100714.56;6332035;28;20515;-88
2023/09/09 02:50:23;;;;;;;7.55;5.45;;;;;;;16.06;100.00;100714.06;6316543;28;20047;-87
2023/09/09 02:53:24;;;;;;;6.20;5.13;;;;;;;16.03;100.00;100719.59;6325360;28;20039;-88
2023/09/09 02:56:26;;;;;;;8.30;5.47;;;;;;;16.00;100.00;100717.25;6327360;28;20051;-87
2023/09/09 02:59:28;;;;;;;9.75;5.47;;;;;;;15.98;100.00;100712.22;6328350;28;20044;-88
2023/09/09 03:02:30;;;;;;;8.23;5.53;;;;;;;15.98;100.00;100717.44;6339454;28;20081;-88
2023/09/09 03:05:37;;;;;;;7.80;5.85;;;;;;;15.99;100.00;100713.84;6336983;28;20239;-88
2023/09/09 03:08:39;;;;;;;7.03;5.22;;;;;;;15.98;100.00;100722.66;6327803;28;20505;-88
2023/09/09 03:11:41;;;;;;;8.07;5.85;;;;;;;15.96;100.00;100719.38;6326483;27;20504;-88
2023/09/09 03:14:44;;;;;;;8.20;5.50;;;;;;;15.89;100.00;100719.16;6332021;28;20043;-88
2023/09/09 03:17:46;;;;;;;7.93;5.50;;;;;;;15.83;100.00;100713.72;6315400;28;20413;-88
2023/09/09 03:20:48;;;;;;;7.22;5.65;;;;;;;15.79;100.00;100722.81;6330110;28;20044;-88
2023/09/09 03:23:50;;;;;;;7.00;5.50;;;;;;;15.77;100.00;100717.75;6315833;28;20520;-87
2023/09/09 03:26:52;;;;;;;7.18;5.95;;;;;;;15.75;100.00;100717.09;6325697;28;20066;-88
2023/09/09 03:29:55;;;;;;;7.10;5.78;;;;;;;15.74;100.00;100715.44;6339411;28;20051;-88
2023/09/09 03:32:58;;;;;;;7.90;5.22;;;;;;;15.69;100.00;100717.66;6313507;28;20048;-88
2023/09/09 03:36:00;;;;;;;6.53;5.70;;;;;;;15.70;100.00;100725.38;6325229;28;20041;-88
2023/09/09 03:39:03;;;;;;;8.93;5.97;;;;;;;15.71;100.00;100724.38;6330285;28;20505;-88
2023/09/09 03:42:05;;;;;;;8.18;6.22;;;;;;;15.71;100.00;100723.56;6333608;28;20058;-88
2023/09/09 03:45:09;;;;;;;7.75;5.80;;;;;;;15.69;100.00;100712.44;6332001;28;20043;-88
2023/09/09 03:48:11;;;;;;;8.05;5.68;;;;;;;15.66;100.00;100713.56;6312413;28;20040;-88
2023/09/09 03:51:13;;;;;;;7.38;5.60;;;;;;;15.63;100.00;100715.66;6327354;28;20036;-88
2023/09/09 03:54:16;;;;;;;9.45;5.85;;;;;;;15.63;100.00;100708.63;6338430;28;20494;-88
2023/09/09 03:57:18;;;;;;;7.35;5.90;;;;;;;15.66;100.00;100707.53;6338523;28;20043;-88
2023/09/09 04:00:20;;;;;;;8.25;5.50;;;;;;;15.66;100.00;100710.94;6321189;28;20066;-88
2023/09/09 04:03:22;;;;;;;6.70;5.45;;;;;;;15.66;100.00;100713.56;6334348;28;20090;-88
2023/09/09 04:06:24;;;;;;;8.85;5.75;;;;;;;15.70;100.00;100704.50;6324927;28;20051;-88
2023/09/09 04:09:29;;;;;;;8.07;5.82;;;;;;;15.67;100.00;100715.19;6311478;28;20075;-88
2023/09/09 04:12:31;;;;;;;8.27;5.65;;;;;;;15.64;100.00;100722.50;6326772;28;20534;-88
2023/09/09 04:15:33;;;;;;;10.05;6.05;;;;;;;15.58;100.00;100718.72;6322124;28;20526;-88
2023/09/09 04:18:35;;;;;;;9.35;5.65;;;;;;;15.53;100.00;100715.72;6343266;28;20044;-88
2023/09/09 04:21:49;;;;;;;6.78;5.43;;;;;;;15.50;100.00;100722.06;6332884;28;20071;-88
2023/09/09 04:24:53;;;;;;;7.57;5.43;;;;;;;15.48;100.00;100724.00;6321234;28;20192;-88
2023/09/09 04:27:55;;;;;;;7.00;5.88;;;;;;;15.44;100.00;100719.22;6335844;28;20047;-88
2023/09/09 04:30:57;;;;;;;7.35;5.65;;;;;;;15.42;100.00;100721.16;6328424;28;20039;-88
2023/09/09 04:33:59;;;;;;;10.00;6.10;;;;;;;15.44;100.00;100722.63;6343246;28;20055;-88
2023/09/09 04:37:03;;;;;;;6.38;5.25;;;;;;;15.49;100.00;100719.59;6341310;28;20059;-88
2023/09/09 04:40:06;;;;;;;7.97;5.80;;;;;;;15.53;100.00;100726.16;6344245;28;20556;-87
2023/09/09 04:43:08;;;;;;;7.65;6.00;;;;;;;15.61;100.00;100726.22;6330955;28;20051;-88
2023/09/09 04:46:11;;;;;;;6.55;5.72;;;;;;;15.67;100.00;100717.78;6335228;28;20627;-88
2023/09/09 04:49:17;;;;;;;8.50;6.38;;;;;;;15.71;100.00;100719.16;6342768;28;20043;-88
2023/09/09 04:52:19;;;;;;;7.88;5.72;;;;;;;15.77;100.00;100724.75;6340368;28;20473;-88
2023/09/09 04:55:22;;;;;;;7.43;6.25;;;;;;;15.82;100.00;100738.19;6313864;28;20040;-88
2023/09/09 04:58:25;;;;;;;8.52;5.65;;;;;;;15.84;100.00;100733.63;6335613;28;20039;-88
2023/09/09 05:01:27;;;;;;;7.03;5.72;;;;;;;15.84;100.00;100734.44;6325069;28;20069;-87
2023/09/09 05:04:29;;;;;;;7.40;5.47;;;;;;;15.85;100.00;100730.03;6334236;28;20040;-88
2023/09/09 05:07:34;;;;;;;7.18;5.95;;;;;;;15.84;100.00;100731.84;6344019;28;20042;-88
2023/09/09 05:10:37;;;;;;;7.90;5.50;;;;;;;15.84;100.00;100726.63;6339335;28;20050;-88
2023/09/09 05:13:39;;;;;;;10.32;5.78;;;;;;;15.85;100.00;100727.44;6332812;28;20470;-88
2023/09/09 05:16:41;;;;;;;6.57;5.95;;;;;;;15.84;100.00;100731.84;6331633;28;20097;-88
2023/09/09 05:19:44;;;;;;;10.07;5.93;;;;;;;15.87;100.00;100721.09;6318641;28;20135;-88
2023/09/09 05:22:46;;;;;;;7.45;5.90;;;;;;;15.92;100.00;100731.09;6324146;28;20458;-88
2023/09/09 05:25:48;;;;;;;7.88;5.85;;;;;;;15.94;100.00;100729.97;6335876;28;20040;-88
2023/09/09 05:28:50;;;;;;;8.93;5.57;;;;;;;15.96;100.00;100735.03;6334466;28;20036;-88
2023/09/09 05:31:52;;;;;;;8.35;5.88;;;;;;;16.00;100.00;100738.16;6321081;28;20400;-88
2023/09/09 05:34:54;;;;;;;8.20;5.55;;;;;;;16.06;100.00;100738.38;6334178;28;20166;-88
2023/09/09 05:37:55;;;;;;;8.20;6.32;;;;;;;16.09;100.00;100734.66;6330361;28;20166;-88
2023/09/09 05:40:57;;;;;;;9.13;6.03;;;;;;;16.13;100.00;100736.81;6335554;28;20048;-88
2023/09/09 05:44:00;;;;;;;7.68;5.95;;;;;;;16.16;100.00;100743.50;6323512;28;20052;-88
2023/09/09 05:47:02;;;;;;;8.68;6.53;;;;;;;16.20;100.00;100739.63;6320110;28;20036;-88
2023/09/09 05:50:08;;;;;;;7.25;5.65;;;;;;;16.23;100.00;100743.75;6333752;28;20047;-88
2023/09/09 05:53:10;;;;;;;7.93;5.93;;;;;;;16.29;100.00;100745.72;6330335;28;20044;-88
2023/09/09 05:56:12;;;;;;;11.68;6.35;;;;;;;16.31;100.00;100749.00;6341134;28;20035;-88
2023/09/09 05:59:14;;;;;;;7.68;6.38;;;;;;;16.29;100.00;100750.94;6341414;28;20398;-88
2023/09/09 06:02:16;;;;;;;8.18;5.88;;;;;;;16.29;100.00;100750.94;6330681;28;20059;-88
2023/09/09 06:05:19;;;;;;;7.65;5.55;;;;;;;16.29;100.00;100753.56;6338834;28;20063;-87
2023/09/09 06:08:20;;;;;;;8.07;6.05;;;;;;;16.30;100.00;100752.59;6342872;27;20043;-88
2023/09/09 06:11:23;;;;;;;7.15;5.80;;;;;;;16.31;100.00;100757.66;6333871;28;20063;-88
2023/09/09 06:14:25;;;;;;;7.60;5.85;;;;;;;16.31;100.00;100757.66;6312124;28;20044;-88
2023/09/09 06:17:27;;;;;;;8.48;5.80;;;;;;;16.35;100.00;100760.81;6327726;28;20040;-88
2023/09/09 06:20:29;;;;;;;7.03;5.75;;;;;;;16.39;100.00;100764.72;6316071;28;20868;-88
2023/09/09 06:23:31;;;;;;;7.00;5.85;;;;;;;16.42;100.00;100769.66;6329370;28;20055;-88
2023/09/09 06:26:33;;;;;;;10.48;6.25;;;;;;;16.44;100.00;100762.47;6326570;28;20047;-88
2023/09/09 06:29:38;;;;;;;7.47;6.18;;;;;;;16.49;100.00;100768.06;6331278;28;20052;-87
2023/09/09 06:32:40;;;;;;;9.55;6.30;;;;;;;16.53;100.00;100765.97;6331830;28;20046;-88
2023/09/09 06:35:52;;;;;;;11.05;6.55;;;;;;;16.61;100.00;100768.63;6312983;28;20085;-88
2023/09/09 06:38:57;;;;;;;12.15;6.50;;;;;;;16.68;100.00;100764.44;6327553;28;20126;-88
2023/09/09 06:41:59;;;;;;;6.90;5.65;;;;;;;16.72;100.00;100776.22;6341118;28;20042;-88
2023/09/09 06:45:07;;;;;;;8.20;5.95;;;;;;;16.80;100.00;100772.84;6340402;28;20051;-88
2023/09/09 06:48:08;;;;;;;8.93;6.47;;;;;;;16.88;100.00;100779.91;6328637;28;20043;-88
2023/09/09 06:51:11;;;;;;;7.15;5.80;;;;;;;16.93;100.00;100775.84;6326905;28;20040;-88
2023/09/09 06:54:12;;;;;;;7.05;5.88;;;;;;;16.99;100.00;100774.41;6341018;28;20050;-88
2023/09/09 06:57:14;;;;;;;7.70;5.95;;;;;;;17.06;100.00;100777.22;6328634;28;20047;-88
2023/09/09 07:00:16;;;;;;;6.80;5.55;;;;;;;17.12;100.00;100779.22;6331500;28;20460;-87
2023/09/09 07:03:19;;;;;;;7.18;6.47;;;;;;;17.18;100.00;100781.19;6317052;28;20409;-88
2023/09/09 07:06:21;;;;;;;8.25;6.55;;;;;;;17.27;100.00;100777.63;6329796;28;20039;-88
2023/09/09 07:09:23;;;;;;;8.38;6.40;;;;;;;17.36;100.00;100784.50;6324186;28;20036;-88
2023/09/09 07:12:25;;;;;;;8.48;6.40;;;;;;;17.45;100.00;100785.38;6328431;28;20042;-88
2023/09/09 07:15:27;;;;;;;7.53;6.50;;;;;;;17.53;100.00;100782.75;6326560;28;20050;-88
2023/09/09 07:18:29;;;;;;;9.05;6.47;;;;;;;17.63;100.00;100782.63;6328419;28;20489;-88
2023/09/09 07:21:31;;;;;;;8.57;6.13;;;;;;;17.72;100.00;100784.28;6320944;28;20048;-88
2023/09/09 07:24:35;;;;;;;10.50;6.10;;;;;;;17.83;100.00;100789.22;6340192;28;20130;-88
2023/09/09 07:27:37;;;;;;;7.88;5.82;;;;;;;17.93;100.00;100783.00;6340680;28;20465;-88
2023/09/09 07:30:39;;;;;;;7.93;5.68;;;;;;;18.00;100.00;100781.38;6332403;28;20036;-88
2023/09/09 07:33:41;;;;;;;7.88;5.75;;;;;;;18.06;100.00;100792.03;6325705;28;20042;-87
2023/09/09 07:36:43;;;;;;;8.90;6.05;;;;;;;18.14;100.00;100783.34;6336033;28;20036;-87
2023/09/09 07:39:57;;;;;;;8.15;5.82;;;;;;;18.23;100.00;100786.78;6338492;28;20050;-87
2023/09/09 07:42:59;;;;;;;7.05;6.13;;;;;;;18.34;100.00;100789.06;6321601;28;20043;-87
2023/09/09 07:46:01;;;;;;;8.20;6.28;;;;;;;18.43;100.00;100787.25;6323570;28;20185;-87
2023/09/09 07:49:03;;;;;;;10.50;6.10;;;;;;;18.50;100.00;100790.84;6333024;28;20067;-87
2023/09/09 07:52:05;;;;;;;7.03;5.53;;;;;;;18.60;100.00;100801.97;6316763;28;20040;-87
2023/09/09 07:55:07;;;;;;;6.90;5.97;;;;;;;18.70;100.00;100796.53;6333085;28;20036;-87
2023/09/09 07:58:09;;;;;;;7.45;5.68;;;;;;;18.79;100.00;100798.19;6335909;28;20039;-87
2023/09/09 08:01:13;;;;;;;8.20;6.00;;;;;;;18.88;100.00;100793.72;6329544;28;20043;-87
2023/09/09 08:04:16;;;;;;;6.95;5.63;;;;;;;19.00;100.00;100791.56;6332530;28;20055;-87
2023/09/09 08:07:18;;;;;;;7.40;5.82;;;;;;;19.10;100.00;100790.38;6323340;28;20390;-87
2023/09/09 08:10:20;;;;;;;7.53;5.70;;;;;;;19.18;100.00;100786.91;6325704;28;20455;-87
2023/09/09 08:13:24;;;;;;;8.35;6.07;;;;;;;19.31;100.00;100791.59;6327700;28;20039;-87
2023/09/09 08:16:26;;;;;;;6.60;5.90;;;;;;;19.43;100.00;100792.00;6330718;28;20124;-87
2023/09/09 08:19:29;;;;;;;8.88;5.25;;;;;;;19.55;100.00;100794.09;6335185;28;20500;-87
2023/09/09 08:22:31;;;;;;;7.97;5.60;;;;;;;19.67;100.00;100783.19;6332291;28;20044;-87
2023/09/09 08:25:33;;;;;;;6.18;5.53;;;;;;;19.80;100.00;100783.47;6321597;28;20040;-87
2023/09/09 08:28:35;;;;;;;7.05;5.50;;;;;;;19.93;100.00;100788.94;6328057;28;20047;-87
2023/09/09 08:31:37;;;;;;;10.00;5.65;;;;;;;20.07;100.00;100789.16;6327424;28;20773;-87
2023/09/09 08:34:41;;;;;;;6.90;5.88;;;;;;;20.20;100.00;100794.66;6327170;28;20036;-87
2023/09/09 08:37:44;;;;;;;7.15;5.32;;;;;;;20.31;100.00;100790.75;6329861;28;20047;-87
2023/09/09 08:41:19;;;;;;;6.13;5.00;;;;;;;20.44;100.00;100791.78;6323990;28;20032;-87
2023/09/09 08:44:39;;;;;;;7.00;5.47;;;;;;;20.60;100.00;100795.28;6328549;28;20059;-87
2023/09/09 08:47:44;;;;;;;6.70;5.50;;;;;;;20.74;100.00;100797.09;6332404;28;20028;-87
2023/09/09 08:50:48;;;;;;;8.57;5.07;;;;;;;20.89;100.00;100793.66;6336695;28;20472;-87
2023/09/09 08:53:52;;;;;;;6.63;5.47;;;;;;;20.99;100.00;100792.38;6325203;28;20516;-87
2023/09/09 08:56:55;;;;;;;6.30;5.50;;;;;;;21.14;100.00;100802.91;6330572;28;20429;-87
2023/09/09 09:00:01;;;;;;;7.50;5.88;;;;;;;21.27;100.00;100797.78;6329694;28;20358;-87
2023/09/09 09:03:03;;;;;;;5.68;4.82;;;;;;;21.44;100.00;100793.16;6341389;28;20043;-87
2023/09/09 09:06:06;;;;;;;5.22;4.40;;;;;;;21.69;100.00;100795.44;6342129;28;20051;-86
2023/09/09 09:09:07;;;;;;;7.07;4.78;;;;;;;21.86;100.00;100791.53;6328725;28;20394;-87
2023/09/09 09:12:13;;;;;;;5.50;4.72;;;;;;;21.96;100.00;100788.56;6337484;28;20036;-87
2023/09/09 09:15:15;;;;;;;5.20;4.53;;;;;;;21.99;100.00;100788.22;6327547;28;20036;-87
2023/09/09 09:18:17;;;;;;;5.28;4.50;;;;;;;22.07;100.00;100792.53;6330911;28;20054;-87
2023/09/09 09:21:19;;;;;;;5.72;4.85;;;;;;;22.15;100.00;100795.84;6327334;28;20489;-87
2023/09/09 09:24:24;;;;;;;5.88;4.57;;;;;;;22.30;100.00;100792.34;6327675;28;20372;-87
2023/09/09 09:27:30;;;;;;;4.47;4.07;;;;;;;22.43;100.00;100788.97;6334468;28;20040;-87
2023/09/09 09:30:33;;;;;;;5.32;4.57;;;;;;;22.54;100.00;100783.16;6326910;28;20044;-86
2023/09/09 09:33:35;;;;;;;5.32;4.40;;;;;;;22.61;100.00;100791.94;6328196;28;20051;-87
2023/09/09 09:36:37;;;;;;;5.13;4.63;;;;;;;22.67;100.00;100787.72;6327490;28;20052;-91
2023/09/09 09:39:40;;;;;;;6.95;4.47;;;;;;;22.72;100.00;100787.94;6324334;28;20052;-87
2023/09/09 09:42:42;;;;;;;9.98;4.97;;;;;;;22.77;100.00;100788.16;6328044;28;20580;-87
2023/09/09 09:45:44;;;;;;;5.57;3.88;;;;;;;22.83;100.00;100792.69;6325376;28;20393;-87
2023/09/09 09:48:46;;;;;;;5.20;4.00;;;;;;;23.04;100.00;100796.25;6339141;28;20119;-87
2023/09/09 09:51:50;;;;;;;6.82;3.78;;;;;;;23.12;100.00;100794.25;6326362;28;20051;-87
2023/09/09 09:54:53;;;;;;;5.60;4.00;;;;;;;23.21;100.00;100789.63;6342028;28;20047;-87
2023/09/09 09:57:57;;;;;;;5.30;3.92;;;;;;;23.32;100.00;100780.28;6339969;28;20039;-87
2023/09/09 10:01:05;;;;;;;6.30;4.05;;;;;;;23.52;100.00;100777.69;6316761;28;20048;-87
2023/09/09 10:04:10;;;;;;;6.10;3.90;;;;;;;23.65;100.00;100773.25;6327606;28;20177;-87
2023/09/09 10:07:16;;;;;;;4.93;3.95;;;;;;;23.72;100.00;100778.53;6331315;28;20044;-87
2023/09/09 10:10:22;;;;;;;7.97;4.10;;;;;;;23.86;100.00;100774.94;6322228;28;20397;-86
2023/09/09 10:13:37;;;;;;;5.43;3.75;;;;;;;23.90;100.00;100778.00;6323885;28;20040;-86
2023/09/09 10:16:42;;;;;;;5.53;4.22;;;;;;;23.95;100.00;100780.00;6331782;28;20036;-87
2023/09/09 10:19:45;;;;;;;6.25;4.30;;;;;;;24.02;100.00;100770.25;6326259;28;20489;-87
2023/09/09 10:22:49;;;;;;;5.13;3.78;;;;;;;24.15;100.00;100769.44;6339149;28;20039;-87
2023/09/09 10:25:53;;;;;;;5.43;3.60;;;;;;;24.23;100.00;100767.41;6348479;27;20131;-93
2023/09/09 10:28:56;;;;;;;5.97;4.50;;;;;;;24.28;100.00;100766.78;6339258;28;20062;-92
2023/09/09 10:32:02;;;;;;;5.28;4.07;;;;;;;24.40;100.00;100765.13;6339839;28;20394;-95
2023/09/09 10:35:05;;;;;;;4.85;3.90;;;;;;;24.57;100.00;100759.41;6324239;28;20110;-87
2023/09/09 10:38:11;;;;;;;4.70;4.13;;;;;;;24.63;100.00;100762.06;6333375;28;20040;-88
2023/09/09 10:41:15;;;;;;;6.10;4.07;;;;;;;24.78;100.00;100758.34;6329621;28;20044;-88
2023/09/09 10:44:17;;;;;;;5.50;4.40;;;;;;;24.95;100.00;100758.69;6334540;28;20093;-88
2023/09/09 10:47:19;;;;;;;4.40;4.00;;;;;;;24.94;100.00;100760.50;6330602;28;20137;-88
2023/09/09 10:50:21;;;;;;;6.57;4.28;;;;;;;24.98;100.00;100756.44;6339944;27;20035;-88
2023/09/09 10:53:26;;;;;;;4.40;4.00;;;;;;;25.03;100.00;100753.97;6340340;28;20046;-88
2023/09/09 10:56:29;;;;;;;5.68;3.90;;;;;;;25.18;100.00;100753.72;6327994;28;20054;-88
2023/09/09 10:59:34;;;;;;;5.80;3.70;;;;;;;25.24;100.00;100757.34;6328052;28;20067;-88
2023/09/09 11:02:45;;;;;;;5.65;3.80;;;;;;;25.34;100.00;100750.56;6321347;28;20032;-88
2023/09/09 11:06:02;;;;;;;6.70;4.00;;;;;;;25.35;100.00;100743.44;6330757;28;20073;-88
2023/09/09 11:09:10;;;;;;;5.22;4.63;;;;;;;25.46;100.00;100745.38;6335082;28;20126;-88
2023/09/09 11:12:14;;;;;;;4.45;4.05;;;;;;;25.67;100.00;100749.53;6323920;28;20036;-88
2023/09/09 11:15:16;;;;;;;5.15;4.07;;;;;;;25.78;100.00;100746.16;6328462;28;20460;-88
2023/09/09 11:18:18;;;;;;;5.13;4.03;;;;;;;25.85;100.00;100751.47;6331942;28;20052;-88
2023/09/09 11:21:22;;;;;;;5.40;4.13;;;;;;;25.98;100.00;100738.06;6325929;28;20044;-88
2023/09/09 11:24:24;;;;;;;4.82;3.90;;;;;;;26.17;100.00;100757.50;6330906;28;20080;-88
2023/09/09 11:27:26;;;;;;;4.70;3.72;;;;;;;26.21;100.00;100755.25;6313284;28;20059;-88
2023/09/09 11:30:28;;;;;;;6.80;3.88;;;;;;;26.24;100.00;100752.16;6336425;28;20046;-89
2023/09/09 11:33:30;;;;;;;4.75;3.72;;;;;;;26.28;100.00;100748.00;6325802;28;20084;-88
2023/09/09 11:36:32;;;;;;;7.78;4.35;;;;;;;26.24;100.00;100746.84;6333146;28;20032;-88
2023/09/09 11:39:41;;;;;;;6.18;3.95;;;;;;;26.30;100.00;100743.28;6334900;28;20052;-89
2023/09/09 11:42:52;;;;;;;4.40;3.80;;;;;;;26.48;100.00;100742.47;6337623;28;20040;-88
2023/09/09 11:45:56;;;;;;;4.97;3.70;;;;;;;26.52;100.00;100735.72;6331243;28;20645;-88
2023/09/09 11:48:58;;;;;;;4.65;4.20;;;;;;;26.58;100.00;100745.50;6334609;28;20499;-88
2023/09/09 11:52:00;;;;;;;4.88;3.95;;;;;;;26.61;100.00;100733.63;6335078;28;20154;-88
2023/09/09 11:55:03;;;;;;;5.45;4.20;;;;;;;26.71;100.00;100733.91;6336335;28;20043;-88
2023/09/09 11:58:05;;;;;;;4.13;3.60;;;;;;;26.71;100.00;100733.91;6337448;28;20036;-88
2023/09/09 12:01:08;;;;;;;5.30;3.78;;;;;;;26.72;100.00;100730.19;6333785;28;20079;-88
2023/09/09 12:04:11;;;;;;;4.88;3.90;;;;;;;26.87;100.00;100727.16;6333499;28;20052;-88
2023/09/09 12:07:14;;;;;;;4.60;3.60;;;;;;;26.96;100.00;100738.28;6329736;28;20831;-88
2023/09/09 12:10:16;;;;;;;3.60;3.30;;;;;;;27.07;95.00;100718.91;6318661;28;20165;-88
2023/09/09 12:13:18;;;;;;;4.40;3.60;;;;;;;27.17;99.28;100719.19;6326854;28;20046;-89
2023/09/09 12:16:21;;;;;;;4.57;3.47;;;;;;;27.36;93.04;100711.19;6337406;28;20059;-89
2023/09/09 12:19:23;;;;;;;4.70;3.70;;;;;;;27.52;89.12;100715.03;6335668;28;20043;-89
2023/09/09 12:22:33;;;;;;;4.00;3.67;;;;;;;27.64;86.48;100707.88;6336411;28;20046;-89
2023/09/09 12:25:38;;;;;;;4.03;3.72;;;;;;;27.71;91.98;100706.72;6334846;28;20078;-89
2023/09/09 12:28:41;;;;;;;3.92;3.53;;;;;;;27.77;99.45;100720.94;6329648;28;20398;-89
2023/09/09 12:31:59;;;;;;;4.93;3.63;;;;;;;27.84;100.00;100715.53;6328570;28;20024;-89
2023/09/09 12:35:03;;;;;;;5.20;4.03;;;;;;;27.91;91.24;100703.75;6321801;28;20036;-89
2023/09/09 12:38:05;;;;;;;4.93;3.42;;;;;;;28.04;85.01;100709.88;6332108;28;20051;-89
2023/09/09 12:41:08;;;;;;;4.20;3.80;;;;;;;28.11;79.76;100708.69;6330286;28;20044;-89
2023/09/09 12:44:10;;;;;;;4.30;3.90;;;;;;;28.22;79.56;100708.91;6331642;28;20044;-89
2023/09/09 12:47:11;;;;;;;4.82;3.50;;;;;;;28.33;89.37;100718.75;6329902;28;20039;-89
2023/09/09 12:50:13;;;;;;;4.78;3.25;;;;;;;28.38;68.15;100705.53;6339174;28;20052;-89
2023/09/09 12:53:16;;;;;;;6.13;3.75;;;;;;;28.49;83.80;100715.38;6333419;28;20040;-89
2023/09/09 12:56:18;;;;;;;3.78;3.40;;;;;;;28.69;78.67;100711.50;6332745;28;20067;-89
2023/09/09 12:59:20;;;;;;;4.55;3.50;;;;;;;28.84;79.94;100719.78;6339535;28;20473;-88
2023/09/09 13:02:23;;;;;;;4.97;3.50;;;;;;;29.04;73.03;100713.22;6332900;28;20548;-89
2023/09/09 13:05:25;;;;;;;4.70;3.85;;;;;;;29.18;73.24;100717.25;6336223;28;20110;-88
2023/09/09 13:08:27;;;;;;;4.00;3.30;;;;;;;29.19;58.26;100687.69;6335520;28;20543;-88
2023/09/09 13:11:29;;;;;;;5.10;3.50;;;;;;;29.24;62.10;100708.28;6332466;28;20052;-88
2023/09/09 13:14:31;;;;;;;5.63;3.60;;;;;;;29.40;62.14;100702.16;6339796;28;20046;-88
2023/09/09 13:17:33;;;;;;;4.78;3.88;;;;;;;29.55;59.32;100703.47;6334548;28;20048;-88
2023/09/09 13:20:35;;;;;;;4.03;3.40;;;;;;;29.73;66.56;100707.75;6334981;28;20032;-88
2023/09/09 13:23:37;;;;;;;5.40;3.42;;;;;;;29.89;70.76;100706.09;6338217;28;20040;-88
2023/09/09 13:26:39;;;;;;;4.10;3.80;;;;;;;30.03;63.66;100705.50;6335888;28;20074;-88
2023/09/09 13:29:41;;;;;;;4.13;3.25;;;;;;;30.15;63.78;100702.75;6338827;28;20046;-88
2023/09/09 13:32:44;;;;;;;4.40;3.65;;;;;;;30.22;63.14;100706.03;6330223;28;20111;-88
2023/09/09 13:35:46;;;;;;;3.58;3.28;;;;;;;30.31;53.17;100685.09;6342414;28;20036;-88
2023/09/09 13:38:48;;;;;;;4.15;3.47;;;;;;;30.39;63.48;100710.56;6327311;28;20073;-88
2023/09/09 13:41:50;;;;;;;5.47;3.60;;;;;;;30.43;56.21;100691.09;6340218;28;20200;-88
2023/09/09 13:44:52;;;;;;;3.95;3.58;;;;;;;30.54;53.37;100693.91;6337233;28;20036;-88
2023/09/09 13:47:57;;;;;;;3.95;3.55;;;;;;;30.65;62.88;100692.94;6326229;28;20296;-89
2023/09/09 13:50:59;;;;;;;4.15;3.67;;;;;;;30.78;56.20;100691.75;6329021;28;20501;-88
2023/09/09 13:54:02;;;;;;;3.50;3.20;;;;;;;30.90;58.58;100685.22;6322645;28;20116;-88
2023/09/09 13:57:06;;;;;;;3.75;3.22;;;;;;;31.04;61.36;100690.16;6316427;28;20511;-88
2023/09/09 14:00:08;;;;;;;5.60;3.70;;;;;;;31.09;54.64;100683.00;6336723;28;20035;-88